Hovedside
METAR-TAF:

METAR-TAF

Lufthavner :

Scappoose Industrial Airpark

Scappoose, Oregon, USA

breddegrad: 45-46-09N, lengdegrad: 122-51-44W, høyde over havet: 16 m

Gjeldene værobservasjon

Denne rapporten ble laget for 19 minutter siden, klokken 17:53 UTC
Vind 10 kt fra Nord
Temperatur 18°C
Luftfuktighet 39%
Trykk 1019 hPa
Sikt: 16.1 km
Skyfri himmel

METAR: KSPB 091753Z AUTO 36010KT 10SM CLR 18/04 A3009 RMK AO2 SLP189 T01780039 10178 20050 58007

Tid: 11:12 (18:12 UTC)


TAF: fraværende

Værobservasjoner og værvarsel for over 4000 flyplasser (METAR- og TAF-rapporter).

Tilgjengelige stasjoner er representert av de røde og gule prikkene på kartet.

Hold musepekeren over prikken for å se navnet på stasjonen.

Klikk så for å se værobservasjoner og -varsler.

For å forandre kartet kan du klikke på den grønne knappen med svart kryss for å zoome inn, på den grønne knappen med strek for å zoome ut, eller på de grønne pilene for å se tilstøtende kart.


METAR-TAF: